Terminal Aerodrome Forecast
Issued by NWS

Home | Current Version | Previous Version | Text Only | Print | Product List | Glossary On
Versions: 1 2 3 4 5 6 7 8 9 10 11 12
272
FTUS46 KSEW 241128
TAFHQM
TAF
KHQM 241128Z 2412/2512 07005KT 6SM -RA BR SCT020 OVC040
     FM241800 VRB03KT 6SM -SHRA BR SCT020 BKN045
     FM242200 27012KT P6SM SCT020
     FM250400 20006KT P6SM SCT012 BKN020=

USA.gov is the U.S. government's official web portal to all federal, state and local government web resources and services.